createdAt,value
2023-05-15T00:00:18.695Z,49.60
2023-05-15T00:02:20.789Z,49.65
2023-05-15T00:04:23.218Z,49.56
2023-05-15T00:06:25.490Z,49.62
2023-05-15T00:08:27.503Z,49.93
2023-05-15T00:10:29.495Z,50.02
2023-05-15T00:12:31.494Z,50.38
2023-05-15T00:14:33.600Z,50.55
2023-05-15T00:16:36.097Z,50.63
2023-05-15T00:18:38.575Z,50.81
2023-05-15T00:20:41.207Z,51.15
2023-05-15T00:22:43.244Z,50.88
2023-05-15T00:24:45.248Z,50.90
2023-05-15T00:26:47.340Z,51.11
2023-05-15T00:28:49.565Z,51.06
2023-05-15T00:30:52.503Z,51.43
2023-05-15T00:32:55.010Z,51.84
2023-05-15T00:34:56.979Z,52.11
2023-05-15T00:37:00.602Z,52.00
2023-05-15T00:39:02.916Z,52.19
2023-05-15T00:41:08.142Z,52.18
2023-05-15T00:43:12.320Z,52.45
2023-05-15T00:45:17.441Z,52.13
2023-05-15T00:47:21.496Z,52.32
2023-05-15T00:49:24.292Z,52.88
2023-05-15T00:51:28.371Z,52.66
2023-05-15T00:53:30.634Z,52.89
2023-05-15T00:55:34.072Z,52.64
2023-05-15T00:57:36.647Z,52.53
2023-05-15T00:59:40.285Z,52.52
2023-05-15T01:01:45.333Z,53.14
2023-05-15T01:03:47.409Z,52.96
2023-05-15T01:05:49.960Z,53.23
2023-05-15T01:08:05.449Z,53.29
2023-05-15T01:10:09.164Z,53.49
2023-05-15T01:12:12.309Z,54.25
2023-05-15T01:14:14.246Z,55.62
2023-05-15T01:16:16.310Z,56.08
2023-05-15T01:18:18.646Z,56.55
2023-05-15T01:20:23.172Z,57.04
2023-05-15T01:22:35.185Z,57.60
2023-05-15T01:24:43.659Z,57.69
2023-05-15T01:26:51.986Z,58.23
2023-05-15T01:29:01.735Z,58.26
2023-05-15T01:31:15.918Z,58.18
2023-05-15T01:33:24.440Z,58.28
2023-05-15T01:35:30.239Z,58.60
2023-05-15T01:37:37.081Z,58.67
2023-05-15T01:39:42.099Z,58.55
2023-05-15T01:41:52.539Z,58.53
2023-05-15T01:44:01.087Z,59.00
2023-05-15T01:46:06.009Z,59.36
2023-05-15T01:48:09.310Z,59.33
2023-05-15T01:50:15.276Z,59.04
2023-05-15T01:52:25.565Z,59.24
2023-05-15T01:54:30.393Z,59.07
2023-05-15T01:56:33.247Z,59.12
2023-05-15T01:58:37.636Z,59.38
2023-05-15T02:00:40.915Z,59.69
2023-05-15T02:02:44.228Z,59.37
2023-05-15T02:04:46.999Z,59.09
2023-05-15T02:06:50.564Z,59.13
2023-05-15T02:08:55.038Z,59.37
2023-05-15T02:11:00.708Z,60.22
2023-05-15T02:13:02.931Z,59.45
2023-05-15T02:15:06.659Z,59.54
2023-05-15T02:17:08.772Z,59.65
2023-05-15T02:19:10.958Z,59.98
2023-05-15T02:21:13.278Z,59.96
2023-05-15T02:23:15.257Z,60.57
2023-05-15T02:25:17.586Z,60.56
2023-05-15T02:27:27.339Z,60.11
2023-05-15T02:29:38.775Z,60.62
2023-05-15T02:31:52.505Z,60.84
2023-05-15T02:34:04.087Z,61.21
2023-05-15T02:36:09.829Z,61.39
2023-05-15T02:38:17.207Z,62.58
2023-05-15T02:40:20.944Z,62.42
2023-05-15T02:42:23.468Z,63.23
2023-05-15T02:44:26.535Z,63.31
2023-05-15T02:46:29.749Z,63.53
2023-05-15T02:48:32.460Z,63.83
2023-05-15T02:50:34.635Z,63.23
2023-05-15T02:52:36.619Z,63.53
2023-05-15T02:54:38.900Z,63.93
2023-05-15T02:56:41.115Z,63.98
2023-05-15T02:58:43.368Z,63.67
2023-05-15T03:00:45.373Z,63.75
2023-05-15T03:02:47.605Z,64.41
2023-05-15T03:04:49.732Z,64.36
2023-05-15T03:06:51.832Z,64.43
2023-05-15T03:08:53.850Z,64.58
2023-05-15T03:10:55.928Z,64.72
2023-05-15T03:12:58.898Z,64.13
2023-05-15T03:15:01.886Z,64.31
2023-05-15T03:17:04.316Z,64.50
2023-05-15T03:19:06.725Z,65.05
2023-05-15T03:21:08.931Z,65.27
2023-05-15T03:23:11.086Z,65.67
2023-05-15T03:25:13.261Z,65.65
2023-05-15T03:27:15.662Z,66.14
2023-05-15T03:29:17.805Z,66.80
2023-05-15T03:31:20.157Z,66.22
2023-05-15T03:33:22.386Z,66.35
2023-05-15T03:35:24.991Z,66.26
2023-05-15T03:37:27.197Z,67.48
2023-05-15T03:39:29.261Z,67.28
2023-05-15T03:41:31.635Z,67.97
2023-05-15T03:43:33.882Z,68.51
2023-05-15T03:45:37.283Z,68.79
2023-05-15T03:47:39.378Z,69.20
2023-05-15T03:49:42.023Z,68.92
2023-05-15T03:51:44.057Z,69.14
2023-05-15T03:53:46.262Z,69.42
2023-05-15T03:55:48.421Z,69.39
2023-05-15T03:57:50.798Z,69.41
2023-05-15T03:59:52.945Z,69.24
2023-05-15T04:02:04.101Z,69.80
2023-05-15T04:04:07.373Z,69.93
2023-05-15T04:06:09.510Z,70.80
2023-05-15T04:08:12.631Z,70.93
2023-05-15T04:10:14.693Z,71.22
2023-05-15T04:12:17.095Z,70.81
2023-05-15T04:14:19.080Z,70.92
2023-05-15T04:16:21.655Z,71.21
2023-05-15T04:18:23.798Z,71.27
2023-05-15T04:20:26.213Z,70.93
2023-05-15T04:22:28.155Z,70.49
2023-05-15T04:24:30.207Z,71.14
2023-05-15T04:26:32.338Z,71.21
2023-05-15T04:28:34.536Z,71.02
2023-05-15T04:30:36.914Z,72.31
2023-05-15T04:32:40.453Z,70.62
2023-05-15T04:34:42.618Z,71.99
2023-05-15T04:36:44.636Z,71.91
2023-05-15T04:38:46.721Z,71.82
2023-05-15T04:40:48.710Z,71.45
2023-05-15T04:42:50.864Z,72.12
2023-05-15T04:44:53.672Z,71.71
2023-05-15T04:46:55.769Z,71.06
2023-05-15T04:48:57.768Z,71.37
2023-05-15T04:50:59.982Z,70.83
2023-05-15T04:53:01.960Z,69.69
2023-05-15T04:55:04.776Z,69.44
2023-05-15T04:57:07.053Z,70.13
2023-05-15T04:59:09.994Z,70.61
2023-05-15T05:01:12.030Z,70.07
2023-05-15T05:03:14.346Z,70.30
2023-05-15T05:05:16.701Z,69.32
2023-05-15T05:07:18.929Z,68.78
2023-05-15T05:09:21.128Z,68.53
2023-05-15T05:11:23.180Z,68.91
2023-05-15T05:13:25.177Z,69.96
2023-05-15T05:15:27.366Z,69.51
2023-05-15T05:17:30.495Z,70.19
2023-05-15T05:19:32.617Z,69.44
2023-05-15T05:21:34.712Z,69.48
2023-05-15T05:23:36.817Z,69.08
2023-05-15T05:25:38.840Z,68.20
2023-05-15T05:27:40.925Z,68.06
2023-05-15T05:29:42.935Z,67.74
2023-05-15T05:31:47.133Z,67.89
2023-05-15T05:33:51.408Z,68.17
2023-05-15T05:35:53.758Z,68.13
2023-05-15T05:37:56.034Z,67.81
2023-05-15T05:39:58.123Z,67.46
2023-05-15T05:42:00.168Z,67.21
2023-05-15T05:44:02.297Z,67.28
2023-05-15T05:46:04.359Z,67.53
2023-05-15T05:48:06.822Z,68.17
2023-05-15T05:50:09.186Z,67.97
2023-05-15T05:52:11.249Z,68.13
2023-05-15T05:54:15.157Z,68.40
2023-05-15T05:56:17.596Z,67.77
2023-05-15T05:58:25.640Z,67.43
2023-05-15T06:00:28.676Z,66.81
2023-05-15T06:02:31.399Z,66.86
2023-05-15T06:04:34.503Z,66.74
2023-05-15T06:06:36.805Z,67.62
2023-05-15T06:08:38.945Z,67.03
2023-05-15T06:10:42.494Z,67.33
2023-05-15T06:12:44.635Z,66.42
2023-05-15T06:14:46.657Z,65.25
2023-05-15T06:16:48.753Z,65.46
2023-05-15T06:18:51.308Z,64.73
2023-05-15T06:20:53.737Z,64.31
2023-05-15T06:22:56.229Z,63.11
2023-05-15T06:25:00.738Z,62.46
2023-05-15T06:27:02.848Z,62.53
2023-05-15T06:29:05.097Z,60.83
2023-05-15T06:31:07.251Z,60.44
2023-05-15T06:33:09.551Z,60.67
2023-05-15T06:35:11.798Z,59.75
2023-05-15T06:37:14.088Z,60.01
2023-05-15T06:39:16.325Z,58.89
2023-05-15T06:41:18.411Z,57.95
2023-05-15T06:43:20.634Z,57.39
2023-05-15T06:45:22.850Z,56.83
2023-05-15T06:47:25.845Z,57.13
2023-05-15T06:49:28.140Z,56.99
2023-05-15T06:51:30.378Z,56.32
2023-05-15T06:53:32.640Z,56.80
2023-05-15T06:55:36.657Z,56.62
2023-05-15T06:57:38.726Z,56.19
2023-05-15T06:59:41.042Z,56.89
2023-05-15T07:01:43.165Z,56.75
2023-05-15T07:03:45.278Z,56.73
2023-05-15T07:05:47.531Z,56.19
2023-05-15T07:07:49.570Z,56.62
2023-05-15T07:09:51.828Z,55.73
2023-05-15T07:11:53.851Z,55.94
2023-05-15T07:13:56.311Z,54.55
2023-05-15T07:15:58.325Z,54.78
2023-05-15T07:18:00.556Z,54.77
2023-05-15T07:20:02.851Z,53.89
2023-05-15T07:22:05.677Z,54.12
2023-05-15T07:24:08.328Z,53.06
2023-05-15T07:26:16.941Z,53.52
2023-05-15T07:28:23.540Z,54.62
2023-05-15T07:30:26.461Z,53.95
2023-05-15T07:32:28.991Z,53.35
2023-05-15T07:34:31.296Z,54.42
2023-05-15T07:36:33.396Z,53.17
2023-05-15T07:38:35.695Z,52.81
2023-05-15T07:40:37.901Z,51.57
2023-05-15T07:42:40.022Z,50.74
2023-05-15T07:44:43.985Z,48.95
2023-05-15T07:46:47.266Z,49.51
2023-05-15T07:49:00.262Z,49.83
2023-05-15T07:51:04.916Z,50.40
2023-05-15T07:53:07.062Z,49.49
2023-05-15T07:55:13.583Z,48.81
2023-05-15T07:57:15.836Z,49.01
2023-05-15T07:59:17.973Z,48.44
2023-05-15T08:01:20.173Z,49.43
2023-05-15T08:03:22.619Z,49.17
2023-05-15T08:05:25.142Z,49.96
2023-05-15T08:07:28.130Z,48.17
2023-05-15T08:09:30.563Z,48.59
2023-05-15T08:11:32.700Z,48.71
2023-05-15T08:13:34.789Z,48.83
2023-05-15T08:15:36.843Z,49.29
2023-05-15T08:17:39.028Z,48.86
2023-05-15T08:19:41.746Z,48.27
2023-05-15T08:21:44.639Z,47.91
2023-05-15T08:23:47.053Z,48.75
2023-05-15T08:25:49.111Z,47.53
2023-05-15T08:27:52.010Z,47.39
2023-05-15T08:29:55.110Z,47.81
2023-05-15T08:31:57.154Z,47.78
2023-05-15T08:34:00.177Z,47.07
2023-05-15T08:36:02.420Z,47.79
2023-05-15T08:38:05.507Z,46.51
2023-05-15T08:40:08.568Z,45.82
2023-05-15T08:42:13.474Z,46.12
2023-05-15T08:44:15.991Z,45.25
2023-05-15T08:46:18.688Z,44.75
2023-05-15T08:48:25.487Z,44.28
2023-05-15T08:50:28.904Z,42.80
2023-05-15T08:52:33.099Z,43.36
2023-05-15T08:54:35.752Z,44.13
2023-05-15T08:56:38.275Z,43.58
2023-05-15T08:58:40.574Z,44.38
2023-05-15T09:00:43.978Z,44.58
2023-05-15T09:02:46.158Z,43.58
2023-05-15T09:04:49.221Z,43.24
2023-05-15T09:06:52.010Z,42.85
2023-05-15T09:08:57.243Z,41.94
2023-05-15T09:11:00.945Z,42.32
2023-05-15T09:13:04.606Z,41.62
2023-05-15T09:15:11.090Z,41.48
2023-05-15T09:17:13.472Z,40.79
2023-05-15T09:19:16.236Z,39.79
2023-05-15T09:21:24.486Z,40.23
2023-05-15T09:23:28.307Z,40.93
2023-05-15T09:25:38.414Z,40.11
2023-05-15T09:27:43.745Z,40.45
2023-05-15T09:29:46.257Z,40.00
2023-05-15T09:31:48.767Z,39.19
2023-05-15T09:34:01.878Z,38.77
2023-05-15T09:36:05.751Z,39.15
2023-05-15T09:38:10.987Z,39.47
2023-05-15T09:40:14.158Z,38.88
2023-05-15T09:42:16.361Z,38.44
2023-05-15T09:44:21.996Z,38.16
2023-05-15T09:46:24.656Z,38.21
2023-05-15T09:48:28.987Z,37.23
2023-05-15T09:50:34.695Z,36.60
2023-05-15T09:52:36.879Z,35.97
2023-05-15T09:54:39.161Z,36.33
2023-05-15T09:56:43.496Z,34.43
2023-05-15T09:58:51.886Z,34.35
2023-05-15T10:00:54.963Z,34.43
2023-05-15T10:02:59.277Z,33.42
2023-05-15T10:05:02.037Z,34.79
2023-05-15T10:07:08.071Z,35.31
2023-05-15T10:09:11.777Z,35.76
2023-05-15T10:11:14.021Z,34.51
2023-05-15T10:13:16.248Z,35.06
2023-05-15T10:15:20.540Z,34.28
2023-05-15T10:17:23.609Z,34.62
2023-05-15T10:19:28.209Z,34.63
2023-05-15T10:21:34.380Z,34.28
2023-05-15T10:23:38.348Z,34.07
2023-05-15T10:25:46.950Z,34.04
2023-05-15T10:27:51.743Z,34.34
2023-05-15T10:29:55.520Z,34.58
2023-05-15T10:32:01.171Z,33.68
2023-05-15T10:34:05.131Z,34.14
2023-05-15T10:36:08.977Z,34.21
2023-05-15T10:38:13.124Z,33.84
2023-05-15T10:40:17.559Z,33.69
2023-05-15T10:42:20.257Z,34.13
2023-05-15T10:44:29.078Z,33.99
2023-05-15T10:46:34.908Z,35.03
2023-05-15T10:48:37.929Z,35.45
2023-05-15T10:50:40.643Z,34.41
2023-05-15T10:52:43.156Z,33.45
2023-05-15T10:54:45.825Z,34.09
2023-05-15T10:56:48.895Z,33.99
2023-05-15T10:58:54.570Z,34.05
2023-05-15T11:00:58.117Z,34.06
2023-05-15T11:03:02.318Z,34.82
2023-05-15T11:05:05.621Z,34.04
2023-05-15T11:07:14.108Z,35.62
2023-05-15T11:09:22.760Z,35.19
2023-05-15T11:11:48.130Z,35.65
2023-05-15T11:13:56.772Z,35.12
2023-05-15T11:15:59.381Z,35.61
2023-05-15T11:18:05.980Z,36.04
2023-05-15T11:20:09.044Z,34.57
2023-05-15T11:22:16.042Z,34.72
2023-05-15T11:24:18.378Z,34.45
2023-05-15T11:26:33.467Z,34.83
2023-05-15T11:28:43.973Z,35.18
2023-05-15T11:30:53.807Z,34.79
2023-05-15T11:33:00.968Z,34.81
2023-05-15T11:35:04.308Z,35.22
2023-05-15T11:37:17.943Z,36.29
2023-05-15T11:39:25.139Z,34.97
2023-05-15T11:41:32.422Z,34.33
2023-05-15T11:43:36.937Z,33.78
2023-05-15T11:45:41.155Z,34.56
2023-05-15T11:47:45.711Z,34.79
2023-05-15T11:49:50.028Z,34.11
2023-05-15T11:51:52.606Z,35.12
2023-05-15T11:53:56.351Z,34.56
2023-05-15T11:55:59.513Z,34.52
2023-05-15T11:58:02.708Z,34.95
2023-05-15T12:00:06.752Z,36.37
2023-05-15T12:02:09.183Z,37.12
2023-05-15T12:04:16.559Z,36.93
2023-05-15T12:06:19.389Z,36.34
2023-05-15T12:08:22.071Z,35.77
2023-05-15T12:10:24.863Z,35.75
2023-05-15T12:12:28.872Z,35.80
2023-05-15T12:14:32.462Z,35.77
2023-05-15T12:16:36.793Z,35.67
2023-05-15T12:18:39.310Z,35.92
2023-05-15T12:20:46.201Z,35.90
2023-05-15T12:22:49.193Z,34.38
2023-05-15T12:24:51.690Z,34.18
2023-05-15T12:26:55.411Z,32.94
2023-05-15T12:28:59.863Z,33.24
2023-05-15T12:31:17.950Z,32.51
2023-05-15T12:33:20.560Z,31.98
2023-05-15T12:35:22.909Z,32.12
2023-05-15T12:37:25.686Z,31.96
2023-05-15T12:39:28.157Z,31.93
2023-05-15T12:41:30.901Z,32.36
2023-05-15T12:43:33.671Z,33.02
2023-05-15T12:45:40.038Z,33.16
2023-05-15T12:47:44.077Z,32.00
2023-05-15T12:49:46.702Z,31.67
2023-05-15T12:51:49.683Z,32.42
2023-05-15T12:53:55.255Z,31.61
2023-05-15T12:55:57.971Z,31.83
2023-05-15T12:58:02.964Z,32.39
2023-05-15T13:00:06.028Z,32.57
2023-05-15T13:02:12.725Z,33.23
2023-05-15T13:04:17.114Z,34.03
2023-05-15T13:06:19.860Z,34.07
2023-05-15T13:08:22.308Z,34.10
2023-05-15T13:10:26.166Z,34.93
2023-05-15T13:12:35.261Z,35.42
2023-05-15T13:14:37.471Z,34.77
2023-05-15T13:16:43.277Z,34.77
2023-05-15T13:18:46.116Z,34.23
2023-05-15T13:21:00.926Z,34.12
2023-05-15T13:23:03.844Z,33.52
2023-05-15T13:25:07.359Z,33.90
2023-05-15T13:27:09.825Z,33.83
2023-05-15T13:29:12.306Z,33.97
2023-05-15T13:31:14.847Z,34.41
2023-05-15T13:33:17.567Z,33.88
2023-05-15T13:35:20.632Z,33.53
2023-05-15T13:37:23.184Z,33.57
2023-05-15T13:39:25.663Z,33.54
2023-05-15T13:41:28.116Z,34.10
2023-05-15T13:43:30.956Z,34.03
2023-05-15T13:45:33.767Z,34.20
2023-05-15T13:47:37.244Z,33.38
2023-05-15T13:49:39.588Z,31.99
2023-05-15T13:51:42.080Z,31.40
2023-05-15T13:53:45.211Z,31.49
2023-05-15T13:55:48.003Z,30.31
2023-05-15T13:57:50.674Z,30.40
2023-05-15T13:59:53.279Z,30.51
2023-05-15T14:01:55.833Z,31.07
2023-05-15T14:03:58.091Z,31.06
2023-05-15T14:06:01.183Z,32.04
2023-05-15T14:08:04.378Z,32.54
2023-05-15T14:10:08.280Z,33.16
2023-05-15T14:12:11.733Z,31.97
2023-05-15T14:14:14.236Z,32.08
2023-05-15T14:16:16.913Z,31.57
2023-05-15T14:18:19.669Z,31.44
2023-05-15T14:20:22.409Z,30.73
2023-05-15T14:22:25.501Z,29.92
2023-05-15T14:24:27.830Z,29.66
2023-05-15T14:26:30.304Z,30.58
2023-05-15T14:28:33.278Z,29.33
2023-05-15T14:30:35.988Z,30.09
2023-05-15T14:32:39.708Z,30.01
2023-05-15T14:34:42.191Z,30.77
2023-05-15T14:36:44.934Z,32.24
2023-05-15T14:38:49.449Z,32.71
2023-05-15T14:41:01.874Z,32.43
2023-05-15T14:43:04.625Z,32.84
2023-05-15T14:45:08.309Z,33.38
2023-05-15T14:47:13.985Z,33.36
2023-05-15T14:49:16.628Z,33.48
2023-05-15T14:51:19.995Z,33.03
2023-05-15T14:53:23.640Z,33.00
2023-05-15T14:55:26.402Z,35.52
2023-05-15T14:57:29.652Z,34.02
2023-05-15T14:59:32.188Z,34.57
2023-05-15T15:01:34.719Z,33.39
2023-05-15T15:03:37.921Z,32.50
2023-05-15T15:05:40.368Z,32.41
2023-05-15T15:07:49.191Z,31.19
2023-05-15T15:09:51.627Z,31.77
2023-05-15T15:11:54.483Z,32.76
2023-05-15T15:13:57.354Z,31.41
2023-05-15T15:16:00.144Z,32.11
2023-05-15T15:18:03.269Z,30.63
2023-05-15T15:20:06.786Z,29.85
2023-05-15T15:22:09.547Z,29.66
2023-05-15T15:24:12.546Z,29.89
2023-05-15T15:26:16.250Z,29.83
2023-05-15T15:28:19.044Z,29.74
2023-05-15T15:30:22.668Z,30.67
2023-05-15T15:32:25.883Z,31.99
2023-05-15T15:34:28.353Z,33.33
2023-05-15T15:36:31.812Z,34.27
2023-05-15T15:38:34.398Z,34.02
2023-05-15T15:40:36.792Z,33.88
2023-05-15T15:42:39.771Z,33.68
2023-05-15T15:44:43.125Z,33.64
2023-05-15T15:46:46.910Z,34.05
2023-05-15T15:48:50.022Z,34.16
2023-05-15T15:50:59.971Z,33.53
2023-05-15T15:53:02.573Z,33.58
2023-05-15T15:55:05.767Z,35.39
2023-05-15T15:57:08.165Z,35.16
2023-05-15T15:59:10.406Z,34.33
2023-05-15T16:01:19.770Z,34.48
2023-05-15T16:03:22.586Z,32.89
2023-05-15T16:05:25.245Z,32.53
2023-05-15T16:07:27.572Z,32.84
2023-05-15T16:09:30.328Z,31.98
2023-05-15T16:11:33.275Z,32.21
2023-05-15T16:13:35.698Z,32.78
2023-05-15T16:15:38.228Z,32.95
2023-05-15T16:17:41.405Z,33.08
2023-05-15T16:19:44.336Z,33.47
2023-05-15T16:21:48.701Z,34.00
2023-05-15T16:23:51.702Z,34.29
2023-05-15T16:25:54.235Z,34.43
2023-05-15T16:27:56.797Z,35.46
2023-05-15T16:29:59.369Z,35.78
2023-05-15T16:32:01.926Z,36.41
2023-05-15T16:34:05.129Z,36.12
2023-05-15T16:36:07.731Z,36.71
2023-05-15T16:38:10.410Z,37.06
2023-05-15T16:40:13.652Z,37.35
2023-05-15T16:42:17.185Z,36.39
2023-05-15T16:44:19.932Z,36.61
2023-05-15T16:46:23.092Z,37.16
2023-05-15T16:48:28.030Z,36.46
2023-05-15T16:50:32.951Z,36.60
2023-05-15T16:52:36.318Z,36.39
2023-05-15T16:54:41.851Z,36.26
2023-05-15T16:56:44.563Z,36.28
2023-05-15T16:58:47.570Z,36.11
2023-05-15T17:00:52.251Z,36.28
2023-05-15T17:02:55.139Z,36.37
2023-05-15T17:04:57.759Z,36.66
2023-05-15T17:07:00.318Z,36.72
2023-05-15T17:09:02.756Z,36.53
2023-05-15T17:11:13.048Z,37.20
2023-05-15T17:13:20.529Z,36.76
2023-05-15T17:15:24.634Z,37.07
2023-05-15T17:17:29.722Z,37.27
2023-05-15T17:19:36.488Z,37.73
2023-05-15T17:21:40.920Z,37.99
2023-05-15T17:23:43.844Z,38.16
2023-05-15T17:25:46.861Z,37.51
2023-05-15T17:27:49.951Z,38.34
2023-05-15T17:29:53.338Z,38.24
2023-05-15T17:31:56.753Z,38.75
2023-05-15T17:34:00.709Z,38.88
2023-05-15T17:36:03.591Z,38.54
2023-05-15T17:38:06.265Z,38.67
2023-05-15T17:40:09.603Z,38.67
2023-05-15T17:42:12.546Z,38.37
2023-05-15T17:44:14.739Z,38.27
2023-05-15T17:46:17.203Z,38.51
2023-05-15T17:48:20.874Z,38.57
2023-05-15T17:50:23.390Z,39.06
2023-05-15T17:52:25.750Z,39.00
2023-05-15T17:54:28.133Z,38.52
2023-05-15T17:56:30.612Z,38.22
2023-05-15T17:58:32.887Z,38.46
2023-05-15T18:00:35.409Z,38.53
2023-05-15T18:02:37.695Z,38.42
2023-05-15T18:04:40.134Z,38.66
2023-05-15T18:06:43.085Z,39.19
2023-05-15T18:08:45.936Z,38.17
2023-05-15T18:10:57.162Z,38.45
2023-05-15T18:13:00.001Z,37.98
2023-05-15T18:15:02.284Z,38.75
2023-05-15T18:17:04.938Z,38.50
2023-05-15T18:19:08.084Z,38.72
2023-05-15T18:21:10.511Z,37.93
2023-05-15T18:23:12.861Z,37.86
2023-05-15T18:25:15.243Z,38.03
2023-05-15T18:27:17.702Z,37.69
2023-05-15T18:29:20.375Z,38.96
2023-05-15T18:31:22.652Z,38.28
2023-05-15T18:33:25.162Z,37.98
2023-05-15T18:35:27.866Z,38.27
2023-05-15T18:37:30.529Z,38.27
2023-05-15T18:39:32.848Z,38.08
2023-05-15T18:41:35.074Z,38.43
2023-05-15T18:43:37.551Z,39.49
2023-05-15T18:45:40.111Z,38.73
2023-05-15T18:47:43.220Z,40.14
2023-05-15T18:49:46.107Z,39.77
2023-05-15T18:51:48.527Z,38.76
2023-05-15T18:53:51.088Z,39.28
2023-05-15T18:55:53.553Z,39.66
2023-05-15T18:57:56.168Z,39.35
2023-05-15T18:59:58.431Z,39.60
2023-05-15T19:02:00.862Z,39.68
2023-05-15T19:04:04.972Z,40.27
2023-05-15T19:06:07.342Z,40.28
2023-05-15T19:08:09.619Z,39.89
2023-05-15T19:10:12.291Z,40.33
2023-05-15T19:12:14.569Z,40.27
2023-05-15T19:14:18.192Z,40.28
2023-05-15T19:16:20.783Z,40.10
2023-05-15T19:18:24.005Z,39.77
2023-05-15T19:20:26.966Z,40.29
2023-05-15T19:22:29.895Z,40.57
2023-05-15T19:24:33.492Z,40.28
2023-05-15T19:26:36.264Z,40.73
2023-05-15T19:28:38.855Z,41.36
2023-05-15T19:30:44.829Z,41.48
2023-05-15T19:32:47.531Z,41.00
2023-05-15T19:34:50.454Z,41.53
2023-05-15T19:36:53.376Z,41.31
2023-05-15T19:38:56.316Z,40.73
2023-05-15T19:40:58.872Z,42.06
2023-05-15T19:43:01.318Z,41.17
2023-05-15T19:45:03.875Z,41.56
2023-05-15T19:47:06.436Z,41.49
2023-05-15T19:49:11.841Z,41.46
2023-05-15T19:51:14.873Z,41.56
2023-05-15T19:53:17.074Z,40.88
2023-05-15T19:55:19.424Z,40.74
2023-05-15T19:57:21.704Z,41.02
2023-05-15T19:59:23.955Z,40.85
2023-05-15T20:01:26.422Z,40.76
2023-05-15T20:03:33.398Z,41.30
2023-05-15T20:05:40.291Z,41.29
2023-05-15T20:07:43.481Z,41.23
2023-05-15T20:09:45.898Z,41.21
2023-05-15T20:11:48.182Z,41.90
2023-05-15T20:13:50.690Z,41.25
2023-05-15T20:15:57.654Z,41.71
2023-05-15T20:18:00.230Z,42.25
2023-05-15T20:20:02.947Z,42.03
2023-05-15T20:22:05.655Z,41.63
2023-05-15T20:24:08.445Z,41.77
2023-05-15T20:26:10.788Z,42.35
2023-05-15T20:28:13.058Z,41.83
2023-05-15T20:30:15.874Z,42.22
2023-05-15T20:32:18.537Z,42.09
2023-05-15T20:34:22.129Z,41.93
2023-05-15T20:36:25.886Z,42.18
2023-05-15T20:38:28.711Z,42.29
2023-05-15T20:40:31.224Z,42.46
2023-05-15T20:42:33.338Z,43.00
2023-05-15T20:44:37.002Z,42.71
2023-05-15T20:46:40.363Z,43.14
2023-05-15T20:48:42.757Z,42.83
2023-05-15T20:50:47.010Z,43.26
2023-05-15T20:52:49.372Z,43.22
2023-05-15T20:54:51.680Z,43.40
2023-05-15T20:56:53.816Z,43.19
2023-05-15T20:58:59.518Z,43.34
2023-05-15T21:01:02.262Z,42.96
2023-05-15T21:03:04.583Z,43.57
2023-05-15T21:05:07.976Z,44.03
2023-05-15T21:07:10.539Z,43.79
2023-05-15T21:09:16.843Z,43.68
2023-05-15T21:11:19.210Z,43.94
2023-05-15T21:13:21.397Z,43.54
2023-05-15T21:15:23.471Z,43.59
2023-05-15T21:17:25.655Z,43.57
2023-05-15T21:19:27.913Z,43.80
2023-05-15T21:21:30.646Z,44.01
2023-05-15T21:23:33.877Z,44.28
2023-05-15T21:25:36.450Z,43.85
2023-05-15T21:27:38.745Z,44.10
2023-05-15T21:29:40.913Z,43.80
2023-05-15T21:31:43.579Z,43.94
2023-05-15T21:33:45.979Z,43.97
2023-05-15T21:35:48.991Z,43.99
2023-05-15T21:37:51.846Z,43.64
2023-05-15T21:39:54.017Z,43.62
2023-05-15T21:41:56.278Z,43.69
2023-05-15T21:43:58.528Z,43.91
2023-05-15T21:46:00.826Z,44.14
2023-05-15T21:48:03.196Z,44.17
2023-05-15T21:50:06.485Z,43.82
2023-05-15T21:52:08.560Z,44.04
2023-05-15T21:54:10.653Z,43.90
2023-05-15T21:56:12.847Z,44.04
2023-05-15T21:58:14.853Z,43.48
2023-05-15T22:00:17.461Z,43.52
2023-05-15T22:02:19.663Z,44.30
2023-05-15T22:04:21.783Z,44.07
2023-05-15T22:06:23.857Z,43.89
2023-05-15T22:08:26.204Z,44.35
2023-05-15T22:10:28.487Z,44.42
2023-05-15T22:12:32.360Z,44.90
2023-05-15T22:14:35.107Z,44.66
2023-05-15T22:16:37.531Z,44.53
2023-05-15T22:18:39.923Z,44.52
2023-05-15T22:20:45.890Z,44.31
2023-05-15T22:22:48.063Z,43.72
2023-05-15T22:24:50.165Z,43.84
2023-05-15T22:26:52.245Z,43.80
2023-05-15T22:28:56.156Z,43.66
2023-05-15T22:30:58.270Z,43.74
2023-05-15T22:33:00.406Z,43.70
2023-05-15T22:35:02.866Z,44.10
2023-05-15T22:37:05.182Z,44.43
2023-05-15T22:39:08.125Z,44.49
2023-05-15T22:41:10.241Z,45.28
2023-05-15T22:43:12.311Z,45.36
2023-05-15T22:45:15.449Z,45.07
2023-05-15T22:47:18.645Z,45.23
2023-05-15T22:49:25.653Z,45.03
2023-05-15T22:51:29.659Z,44.75
2023-05-15T22:53:31.867Z,45.18
2023-05-15T22:55:33.930Z,45.56
2023-05-15T22:57:36.091Z,45.75
2023-05-15T22:59:38.073Z,45.59
2023-05-15T23:01:40.247Z,45.91
2023-05-15T23:03:42.340Z,46.02
2023-05-15T23:05:45.439Z,46.20
2023-05-15T23:07:47.652Z,46.22
2023-05-15T23:09:49.667Z,46.45
2023-05-15T23:11:51.897Z,46.87
2023-05-15T23:13:54.405Z,47.34
2023-05-15T23:15:56.392Z,47.44
2023-05-15T23:17:58.498Z,47.58
2023-05-15T23:20:00.953Z,48.06
2023-05-15T23:22:03.378Z,48.27
2023-05-15T23:24:05.754Z,48.38
2023-05-15T23:26:07.683Z,48.85
2023-05-15T23:28:09.895Z,49.33
2023-05-15T23:30:12.423Z,49.92
2023-05-15T23:32:14.449Z,49.95
2023-05-15T23:34:16.449Z,50.25
2023-05-15T23:36:18.487Z,50.08
2023-05-15T23:38:22.457Z,50.63
2023-05-15T23:40:24.601Z,50.10
2023-05-15T23:42:26.676Z,50.42
2023-05-15T23:44:28.673Z,50.98
2023-05-15T23:46:30.795Z,50.30
2023-05-15T23:48:33.789Z,51.10
2023-05-15T23:50:36.029Z,50.42
2023-05-15T23:52:38.303Z,50.32
2023-05-15T23:54:40.522Z,50.11
2023-05-15T23:56:42.813Z,50.58
2023-05-15T23:58:44.967Z,50.84
